Time;durP1;ratioP1;P1;durP2;ratioP2;P2;SDS_P1;SDS_P2;PMS_P1;PMS_P2;Temp;Humidity;BMP_temperature;BMP_pressure;BME280_temperature;BME280_humidity;BME280_pressure;Samples;Min_cycle;Max_cycle;Signal;HPM_P1;HPM_P2
2022/08/21 00:01:28;;;;;;;8.13;2.17;;;15.90;99.90;;;;;;5073899;28;20047;-89
2022/08/21 00:03:54;;;;;;;5.07;1.80;;;15.90;99.90;;;;;;5090133;28;20112;-89
2022/08/21 00:06:21;;;;;;;5.57;1.88;;;15.80;99.90;;;;;;5105242;28;20127;-90
2022/08/21 00:08:47;;;;;;;11.05;2.03;;;15.80;99.90;;;;;;5090875;28;20126;-89
2022/08/21 00:11:15;;;;;;;6.82;1.40;;;15.80;99.90;;;;;;5088220;28;20103;-90
2022/08/21 00:13:41;;;;;;;4.63;1.80;;;15.70;99.90;;;;;;5106650;28;20479;-89
2022/08/21 00:16:07;;;;;;;10.63;2.25;;;15.70;99.90;;;;;;5072011;28;20053;-89
2022/08/21 00:18:33;;;;;;;12.30;2.55;;;15.70;99.90;;;;;;5106370;28;20108;-90
2022/08/21 00:20:58;;;;;;;5.28;2.40;;;15.70;99.90;;;;;;5073131;28;20376;-89
2022/08/21 00:23:24;;;;;;;4.25;2.03;;;15.60;99.90;;;;;;5071320;28;20042;-88
2022/08/21 00:25:50;;;;;;;12.52;2.47;;;15.60;99.90;;;;;;5090561;28;20041;-89
2022/08/21 00:28:16;;;;;;;9.15;2.83;;;16.00;99.90;;;;;;5087630;28;20095;-89
2022/08/21 00:30:43;;;;;;;8.32;2.45;;;15.50;99.90;;;;;;5089604;28;20048;-89
2022/08/21 00:33:09;;;;;;;4.68;2.10;;;15.70;99.90;;;;;;5105522;28;20062;-90
2022/08/21 00:35:38;;;;;;;7.15;2.42;;;15.50;99.90;;;;;;5107829;27;20062;-89
2022/08/21 00:38:07;;;;;;;8.20;2.40;;;15.60;99.90;;;;;;5109448;27;20054;-89
2022/08/21 00:40:38;;;;;;;8.93;2.60;;;15.50;99.90;;;;;;5108268;27;20175;-90
2022/08/21 00:43:08;;;;;;;6.78;2.53;;;15.50;99.90;;;;;;5092483;27;20129;-89
2022/08/21 00:45:34;;;;;;;5.45;1.95;;;15.50;99.90;;;;;;5091316;27;20155;-89
2022/08/21 00:48:00;;;;;;;7.30;2.38;;;15.50;99.90;;;;;;5109521;27;20039;-90
2022/08/21 00:50:31;;;;;;;5.30;2.42;;;15.40;99.90;;;;;;5108799;28;20039;-90
2022/08/21 00:52:58;;;;;;;4.28;2.38;;;15.40;99.90;;;;;;5108887;27;20094;-88
2022/08/21 00:55:24;;;;;;;11.63;2.30;;;15.40;99.90;;;;;;5110199;28;20103;-89
2022/08/21 00:57:53;;;;;;;6.88;2.65;;;15.30;99.90;;;;;;5090752;28;20478;-89
2022/08/21 01:00:28;;;;;;;7.80;1.98;;;15.30;99.90;;;;;;5093636;28;20043;-89
2022/08/21 01:02:55;;;;;;;10.10;2.55;;;15.40;99.90;;;;;;5108988;28;20397;-89
2022/08/21 01:05:21;;;;;;;9.77;2.47;;;15.60;99.90;;;;;;5092689;28;20042;-89
2022/08/21 01:07:47;;;;;;;9.35;2.28;;;15.40;99.90;;;;;;5075630;28;20048;-90
2022/08/21 01:10:14;;;;;;;5.15;1.98;;;15.30;99.90;;;;;;5108818;28;20117;-89
2022/08/21 01:12:40;;;;;;;5.82;2.50;;;15.40;99.90;;;;;;5093280;28;20078;-89
2022/08/21 01:15:07;;;;;;;5.63;2.00;;;15.20;99.90;;;;;;5090529;28;20043;-89
2022/08/21 01:17:33;;;;;;;9.48;2.17;;;15.30;99.90;;;;;;5059899;28;20086;-90
2022/08/21 01:20:02;;;;;;;11.98;2.45;;;15.30;99.90;;;;;;5108260;28;20407;-89
2022/08/21 01:22:28;;;;;;;8.10;2.35;;;15.30;99.90;;;;;;5108764;28;20036;-89
2022/08/21 01:24:53;;;;;;;10.18;2.28;;;15.30;99.90;;;;;;5091922;28;20073;-89
2022/08/21 01:27:19;;;;;;;11.32;2.05;;;15.10;99.90;;;;;;5091190;28;20039;-89
2022/08/21 01:29:58;;;;;;;9.80;2.05;;;15.10;99.90;;;;;;5092745;28;20040;-90
2022/08/21 01:32:24;;;;;;;5.57;1.80;;;15.00;99.90;;;;;;5090733;28;20071;-89
2022/08/21 01:34:51;;;;;;;4.93;1.70;;;15.00;99.90;;;;;;5109772;28;20054;-90
2022/08/21 01:37:19;;;;;;;4.05;2.13;;;14.90;99.90;;;;;;5108332;28;20051;-89
2022/08/21 01:39:46;;;;;;;5.78;1.95;;;15.00;99.90;;;;;;5108698;28;20085;-90
2022/08/21 01:42:13;;;;;;;12.75;2.67;;;15.00;99.90;;;;;;5109398;28;20127;-89
2022/08/21 01:44:39;;;;;;;13.38;3.78;;;14.80;99.90;;;;;;5108122;28;20071;-89
2022/08/21 01:47:08;;;;;;;6.97;2.47;;;14.80;99.90;;;;;;5110581;28;20104;-90
2022/08/21 01:49:35;;;;;;;8.65;2.45;;;14.70;99.90;;;;;;5107617;28;20071;-89
2022/08/21 01:52:01;;;;;;;12.30;3.60;;;14.70;99.90;;;;;;5109403;28;20090;-89
2022/08/21 01:54:27;;;;;;;8.98;3.08;;;14.70;99.90;;;;;;5109635;27;20043;-88
2022/08/21 01:56:54;;;;;;;8.68;3.30;;;14.80;99.90;;;;;;5112507;27;20463;-89
2022/08/21 01:59:21;;;;;;;7.18;2.15;;;14.90;99.90;;;;;;5112750;27;20047;-89
2022/08/21 02:01:47;;;;;;;9.73;2.35;;;16.10;99.90;;;;;;5094255;27;20035;-90
2022/08/21 02:04:12;;;;;;;13.38;3.10;;;15.50;99.90;;;;;;5113460;27;20043;-90
2022/08/21 02:06:38;;;;;;;7.20;2.53;;;15.10;99.90;;;;;;5111504;27;20039;-90
2022/08/21 02:09:06;;;;;;;6.68;3.10;;;15.10;99.90;;;;;;5112924;27;20043;-89
2022/08/21 02:11:32;;;;;;;6.15;2.22;;;15.10;99.90;;;;;;5112735;27;20035;-89
2022/08/21 02:13:58;;;;;;;7.15;2.65;;;15.20;99.90;;;;;;5094997;27;20074;-89
2022/08/21 02:16:23;;;;;;;9.70;2.38;;;15.20;99.90;;;;;;5096108;27;20074;-89
2022/08/21 02:18:49;;;;;;;8.32;2.53;;;15.20;99.90;;;;;;5112237;27;20083;-88
2022/08/21 02:21:15;;;;;;;8.43;2.67;;;16.00;99.90;;;;;;5097061;27;20039;-90
2022/08/21 02:23:41;;;;;;;5.78;2.53;;;15.20;99.90;;;;;;5078044;27;20490;-88
2022/08/21 02:26:07;;;;;;;7.43;2.47;;;15.30;99.90;;;;;;5095945;27;20130;-90
2022/08/21 02:28:34;;;;;;;11.30;2.67;;;15.30;99.90;;;;;;5095770;27;20037;-88
2022/08/21 02:31:00;;;;;;;6.22;2.58;;;15.30;99.90;;;;;;5112595;27;20108;-89
2022/08/21 02:33:27;;;;;;;7.35;3.00;;;15.40;99.90;;;;;;5095507;27;20929;-90
2022/08/21 02:35:54;;;;;;;7.45;2.88;;;15.30;99.90;;;;;;5077691;27;20099;-90
2022/08/21 02:38:23;;;;;;;7.70;2.63;;;15.40;99.90;;;;;;5113294;27;20054;-91
2022/08/21 02:40:50;;;;;;;8.45;2.88;;;15.40;99.90;;;;;;5094592;27;20143;-90
2022/08/21 02:43:18;;;;;;;9.00;2.90;;;15.40;99.90;;;;;;5113166;27;20401;-88
2022/08/21 02:45:45;;;;;;;7.60;2.78;;;15.50;99.90;;;;;;5111507;27;20043;-88
2022/08/21 02:48:15;;;;;;;10.48;3.30;;;15.50;99.90;;;;;;5095218;27;20076;-90
2022/08/21 02:50:47;;;;;;;9.98;3.15;;;15.50;99.90;;;;;;5095674;27;20092;-89
2022/08/21 02:53:16;;;;;;;10.30;2.83;;;15.60;99.90;;;;;;5111080;27;20047;-88
2022/08/21 02:55:47;;;;;;;6.03;2.40;;;15.70;99.90;;;;;;5114362;27;20386;-89
2022/08/21 02:58:14;;;;;;;11.98;2.58;;;15.70;99.90;;;;;;5111480;27;20099;-90
2022/08/21 03:00:40;;;;;;;9.13;2.50;;;15.80;99.90;;;;;;5095488;27;20328;-90
2022/08/21 03:03:07;;;;;;;7.75;3.92;;;15.70;99.90;;;;;;5094813;27;20350;-90
2022/08/21 03:05:34;;;;;;;10.23;2.92;;;15.80;99.90;;;;;;5094195;27;20390;-89
2022/08/21 03:08:02;;;;;;;8.70;2.20;;;15.70;99.90;;;;;;5112312;27;20104;-89
2022/08/21 03:10:28;;;;;;;7.32;2.33;;;15.80;99.90;;;;;;5111144;27;20080;-90
2022/08/21 03:12:54;;;;;;;7.70;2.67;;;15.80;99.90;;;;;;5079267;27;20495;-89
2022/08/21 03:15:23;;;;;;;6.57;2.40;;;16.40;99.90;;;;;;5111135;27;20043;-89
2022/08/21 03:17:50;;;;;;;7.00;2.30;;;15.80;99.90;;;;;;5111613;27;20090;-89
2022/08/21 03:20:22;;;;;;;7.03;2.13;;;15.80;99.90;;;;;;5093581;27;20039;-89
2022/08/21 03:22:48;;;;;;;4.40;1.73;;;15.80;99.90;;;;;;5093597;27;20211;-90
2022/08/21 03:25:14;;;;;;;7.47;2.45;;;15.80;99.90;;;;;;5077671;27;20312;-89
2022/08/21 03:27:39;;;;;;;7.45;2.47;;;15.90;99.90;;;;;;5093607;27;20426;-89
2022/08/21 03:30:08;;;;;;;7.63;2.08;;;15.90;99.90;;;;;;5095359;27;20043;-91
2022/08/21 03:32:34;;;;;;;9.65;2.00;;;15.90;99.90;;;;;;5110795;27;20097;-89
2022/08/21 03:35:00;;;;;;;8.45;2.78;;;15.90;99.90;;;;;;5093864;27;20482;-88
2022/08/21 03:37:26;;;;;;;10.02;3.03;;;15.90;99.90;;;;;;5108036;28;20052;-90
2022/08/21 03:39:51;;;;;;;5.85;2.30;;;15.90;99.90;;;;;;5091816;28;20151;-89
2022/08/21 03:42:17;;;;;;;8.77;2.28;;;15.90;99.90;;;;;;5110202;28;20035;-90
2022/08/21 03:44:43;;;;;;;7.50;2.28;;;15.90;99.90;;;;;;5090427;28;20051;-90
2022/08/21 03:47:09;;;;;;;9.05;2.88;;;15.80;99.90;;;;;;5076435;28;20047;-90
2022/08/21 03:49:35;;;;;;;5.30;2.20;;;15.90;99.90;;;;;;5108454;28;20079;-89
2022/08/21 03:52:01;;;;;;;8.32;2.28;;;15.90;99.90;;;;;;5109241;28;20123;-90
2022/08/21 03:54:27;;;;;;;6.65;2.25;;;15.90;99.90;;;;;;5092351;28;20067;-91
2022/08/21 03:56:53;;;;;;;8.65;2.33;;;15.80;99.90;;;;;;5091151;28;20051;-89
2022/08/21 03:59:18;;;;;;;11.80;2.00;;;15.80;99.90;;;;;;5058136;28;20092;-89
2022/08/21 04:01:58;;;;;;;9.68;2.40;;;15.80;99.90;;;;;;5089787;28;20040;-89
2022/08/21 04:04:25;;;;;;;3.72;2.10;;;15.80;99.90;;;;;;5108880;28;20803;-89
2022/08/21 04:06:50;;;;;;;7.05;2.45;;;15.80;99.90;;;;;;5089863;28;20046;-89
2022/08/21 04:09:17;;;;;;;9.48;2.25;;;15.80;99.90;;;;;;5074409;28;20044;-89
2022/08/21 04:11:44;;;;;;;6.82;2.53;;;15.80;99.90;;;;;;5091508;28;20047;-89
2022/08/21 04:14:09;;;;;;;9.38;2.70;;;15.80;99.90;;;;;;5091979;28;20024;-89
2022/08/21 04:16:35;;;;;;;8.65;2.60;;;15.80;99.90;;;;;;5091589;28;20171;-90
2022/08/21 04:19:01;;;;;;;7.95;2.75;;;15.80;99.90;;;;;;5091316;28;20123;-89
2022/08/21 04:21:26;;;;;;;4.72;2.58;;;15.80;99.90;;;;;;5093398;28;20071;-89
2022/08/21 04:23:55;;;;;;;10.02;2.88;;;15.80;99.90;;;;;;5105506;28;20124;-91
2022/08/21 04:26:21;;;;;;;7.68;2.78;;;15.70;99.90;;;;;;5107256;28;20495;-89
2022/08/21 04:28:46;;;;;;;7.47;3.05;;;15.80;99.90;;;;;;5106367;28;20043;-89
2022/08/21 04:31:12;;;;;;;10.55;2.55;;;15.70;99.90;;;;;;5089749;28;20108;-90
2022/08/21 04:33:38;;;;;;;6.10;2.45;;;15.70;99.90;;;;;;5074503;28;20119;-89
2022/08/21 04:36:04;;;;;;;7.43;2.50;;;15.80;99.90;;;;;;5105998;28;20079;-89
2022/08/21 04:38:33;;;;;;;9.25;2.78;;;15.80;99.90;;;;;;5108432;28;20043;-89
2022/08/21 04:40:58;;;;;;;8.98;2.85;;;15.80;99.90;;;;;;5089029;28;20040;-90
2022/08/21 04:43:24;;;;;;;6.35;2.40;;;15.80;99.90;;;;;;5073485;28;20047;-89
2022/08/21 04:45:51;;;;;;;6.75;2.85;;;15.80;99.90;;;;;;5108029;28;20039;-88
2022/08/21 04:48:20;;;;;;;4.55;2.58;;;15.80;99.90;;;;;;5106737;28;20032;-88
2022/08/21 04:51:05;;;;;;;10.73;2.60;;;15.80;99.90;;;;;;5091127;28;20035;-89
2022/08/21 04:53:39;;;;;;;15.48;2.75;;;15.80;99.90;;;;;;5105457;28;20043;-88
2022/08/21 04:56:15;;;;;;;8.93;2.30;;;15.90;99.90;;;;;;5090776;28;20051;-89
2022/08/21 04:58:42;;;;;;;10.13;2.63;;;16.40;99.90;;;;;;5105990;28;20126;-89
2022/08/21 05:01:12;;;;;;;7.45;2.88;;;16.00;99.90;;;;;;5106343;28;20101;-88
2022/08/21 05:03:38;;;;;;;7.95;2.80;;;16.00;99.90;;;;;;5106752;28;20044;-88
2022/08/21 05:06:06;;;;;;;8.85;2.47;;;16.00;99.90;;;;;;5087757;28;20051;-89
2022/08/21 05:08:33;;;;;;;9.23;2.72;;;16.00;99.90;;;;;;5106583;28;20050;-87
2022/08/21 05:10:59;;;;;;;7.75;2.78;;;16.10;99.90;;;;;;5087856;28;20563;-88
2022/08/21 05:13:25;;;;;;;11.63;2.75;;;15.70;99.90;;;;;;5088917;28;20047;-89
2022/08/21 05:15:50;;;;;;;5.28;2.30;;;16.10;99.90;;;;;;5071692;28;20044;-89
2022/08/21 05:18:16;;;;;;;8.52;2.80;;;16.10;99.90;;;;;;5105477;28;20047;-89
2022/08/21 05:20:42;;;;;;;16.85;2.60;;;16.20;99.90;;;;;;5106505;28;20140;-89
2022/08/21 05:23:10;;;;;;;8.15;2.78;;;16.20;99.90;;;;;;5054615;28;20047;-89
2022/08/21 05:25:36;;;;;;;10.07;2.78;;;16.20;99.90;;;;;;5090049;28;20088;-89
2022/08/21 05:28:02;;;;;;;12.50;2.53;;;16.30;99.90;;;;;;5105078;28;20500;-88
2022/08/21 05:30:28;;;;;;;7.68;2.50;;;16.30;99.90;;;;;;5091862;28;20035;-88
2022/08/21 05:32:58;;;;;;;9.90;2.58;;;16.40;99.90;;;;;;5091743;28;20402;-89
2022/08/21 05:35:25;;;;;;;11.10;2.75;;;16.40;99.90;;;;;;5092421;27;20043;-88
2022/08/21 05:37:51;;;;;;;9.25;2.55;;;16.40;99.90;;;;;;5113048;27;20039;-88
2022/08/21 05:40:17;;;;;;;11.35;2.92;;;16.50;99.90;;;;;;5111442;27;20063;-89
2022/08/21 05:42:43;;;;;;;9.13;3.00;;;16.50;99.90;;;;;;5079812;27;20055;-91
2022/08/21 05:45:09;;;;;;;8.90;3.00;;;16.50;99.90;;;;;;5111465;27;20158;-89
2022/08/21 05:47:35;;;;;;;10.00;2.65;;;16.60;99.90;;;;;;5096142;27;20131;-89
2022/08/21 05:50:01;;;;;;;13.68;2.83;;;16.60;99.90;;;;;;5112088;27;20063;-87
2022/08/21 05:52:26;;;;;;;13.05;3.42;;;16.70;99.90;;;;;;5112733;27;20050;-88
2022/08/21 05:54:53;;;;;;;10.07;3.63;;;16.70;99.90;;;;;;5112632;27;20046;-89
2022/08/21 05:57:20;;;;;;;8.63;2.97;;;16.80;99.90;;;;;;5112017;27;20058;-88
2022/08/21 05:59:46;;;;;;;7.78;2.60;;;16.80;99.90;;;;;;5096393;27;20557;-89
2022/08/21 06:02:11;;;;;;;15.38;2.78;;;16.90;99.90;;;;;;5111949;27;20122;-88
2022/08/21 06:04:39;;;;;;;17.38;2.70;;;16.90;99.90;;;;;;5061597;27;20050;-89
2022/08/21 06:07:05;;;;;;;6.10;2.83;;;17.00;99.90;;;;;;5111541;27;20516;-88
2022/08/21 06:09:32;;;;;;;10.50;2.45;;;17.00;99.90;;;;;;5112302;27;20375;-87
2022/08/21 06:11:57;;;;;;;7.75;2.80;;;17.10;99.90;;;;;;5078211;27;20058;-88
2022/08/21 06:14:23;;;;;;;8.35;2.85;;;17.10;99.90;;;;;;5111129;27;20043;-90
2022/08/21 06:16:49;;;;;;;9.05;3.17;;;17.20;99.90;;;;;;5096214;27;20126;-89
2022/08/21 06:19:14;;;;;;;8.63;2.85;;;17.20;99.90;;;;;;5076891;27;20044;-89
2022/08/21 06:21:40;;;;;;;6.78;2.53;;;17.30;99.90;;;;;;5112916;27;20127;-88
2022/08/21 06:24:06;;;;;;;13.02;2.88;;;17.60;99.90;;;;;;5094416;27;20114;-88
2022/08/21 06:26:32;;;;;;;13.38;3.55;;;17.40;99.90;;;;;;5095260;27;20065;-89
2022/08/21 06:28:58;;;;;;;4.55;2.22;;;17.40;99.90;;;;;;5095044;27;20584;-89
2022/08/21 06:31:27;;;;;;;6.32;3.13;;;17.40;99.90;;;;;;5111279;27;20062;-89
2022/08/21 06:33:53;;;;;;;13.43;3.08;;;17.50;99.90;;;;;;5113058;27;20049;-89
2022/08/21 06:36:20;;;;;;;8.80;2.65;;;17.50;99.90;;;;;;5108221;28;20091;-88
2022/08/21 06:38:47;;;;;;;6.53;2.47;;;17.60;99.90;;;;;;5093416;28;20550;-89
2022/08/21 06:41:13;;;;;;;5.65;2.38;;;17.70;99.90;;;;;;5107735;28;20043;-88
2022/08/21 06:43:39;;;;;;;18.90;3.08;;;17.70;99.90;;;;;;5109002;28;20122;-91
2022/08/21 06:46:05;;;;;;;12.20;2.72;;;17.80;99.90;;;;;;5075469;28;20082;-89
2022/08/21 06:48:33;;;;;;;14.73;2.90;;;17.90;99.90;;;;;;5093247;28;20478;-90
2022/08/21 06:51:00;;;;;;;9.13;2.25;;;17.90;99.90;;;;;;5078304;28;20031;-89
2022/08/21 06:53:26;;;;;;;8.70;2.80;;;18.00;99.90;;;;;;5110892;28;20379;-91
2022/08/21 06:55:52;;;;;;;9.88;2.45;;;18.10;99.90;;;;;;5099498;28;20038;-90
2022/08/21 06:58:19;;;;;;;14.25;2.30;;;18.20;99.90;;;;;;5113098;28;20043;-91
2022/08/21 07:00:47;;;;;;;7.22;2.42;;;18.30;99.90;;;;;;5080011;28;20036;-89
2022/08/21 07:03:19;;;;;;;5.38;1.92;;;18.40;99.90;;;;;;5113250;28;20048;-90
2022/08/21 07:05:44;;;;;;;7.83;1.93;;;18.40;99.90;;;;;;5092685;28;20115;-90
2022/08/21 07:08:10;;;;;;;7.03;1.75;;;18.50;99.90;;;;;;5094260;28;20051;-90
2022/08/21 07:10:36;;;;;;;6.60;1.55;;;18.60;99.90;;;;;;5075715;28;20039;-89
2022/08/21 07:13:01;;;;;;;7.82;1.88;;;18.70;99.90;;;;;;5093242;28;20090;-89
2022/08/21 07:15:29;;;;;;;5.85;1.55;;;18.50;99.90;;;;;;5073984;28;20116;-91
2022/08/21 07:17:54;;;;;;;8.45;2.25;;;18.80;99.90;;;;;;5107690;28;20185;-89
2022/08/21 07:20:20;;;;;;;6.10;2.08;;;18.90;99.90;;;;;;5090362;28;20122;-88
2022/08/21 07:22:46;;;;;;;8.23;1.88;;;19.00;99.90;;;;;;5073661;28;20182;-89
2022/08/21 07:25:12;;;;;;;8.32;1.90;;;19.10;99.90;;;;;;5108899;28;20542;-90
2022/08/21 07:27:37;;;;;;;7.20;1.80;;;19.10;99.90;;;;;;5089955;28;20107;-88
2022/08/21 07:30:05;;;;;;;8.88;1.77;;;19.30;99.90;;;;;;5091131;28;20122;-90
2022/08/21 07:32:30;;;;;;;8.60;1.50;;;19.40;99.90;;;;;;5089933;28;20051;-92
2022/08/21 07:34:56;;;;;;;11.55;2.22;;;19.50;99.90;;;;;;5107190;28;20039;-90
2022/08/21 07:37:22;;;;;;;12.63;2.00;;;19.50;99.90;;;;;;5107182;28;20139;-89
2022/08/21 07:39:48;;;;;;;6.20;1.65;;;19.60;99.90;;;;;;5106696;28;20044;-89
2022/08/21 07:42:15;;;;;;;4.90;1.35;;;19.80;99.90;;;;;;5073865;28;20115;-89
2022/08/21 07:44:41;;;;;;;4.70;1.40;;;19.80;99.90;;;;;;5105989;28;20094;-91
2022/08/21 07:47:06;;;;;;;8.35;1.65;;;19.90;99.90;;;;;;5091000;28;20102;-89
2022/08/21 07:49:32;;;;;;;11.32;1.95;;;20.00;99.90;;;;;;5106005;28;20093;-88
2022/08/21 07:51:58;;;;;;;7.80;1.20;;;20.00;99.90;;;;;;5106459;28;20040;-90
2022/08/21 07:54:23;;;;;;;6.03;1.42;;;20.40;99.90;;;;;;5072432;28;20046;-90
2022/08/21 07:56:49;;;;;;;7.43;1.27;;;20.20;99.90;;;;;;5106912;28;20116;-89
2022/08/21 07:59:15;;;;;;;6.05;1.42;;;20.20;99.90;;;;;;5056964;28;20035;-90
2022/08/21 08:01:41;;;;;;;6.95;2.60;;;20.20;99.90;;;;;;5071941;28;20391;-90
2022/08/21 08:04:06;;;;;;;4.57;1.20;;;20.30;99.90;;;;;;5073908;28;20040;-90
2022/08/21 08:06:32;;;;;;;7.30;1.50;;;20.50;99.90;;;;;;5088508;28;20043;-89
2022/08/21 08:08:58;;;;;;;9.65;1.40;;;20.60;99.90;;;;;;5090125;28;20040;-90
2022/08/21 08:11:23;;;;;;;5.68;1.20;;;20.60;99.90;;;;;;5106536;28;20047;-91
2022/08/21 08:13:51;;;;;;;2.67;0.93;;;20.70;99.90;;;;;;5055990;28;20046;-90
2022/08/21 08:16:18;;;;;;;9.02;1.40;;;20.80;99.90;;;;;;5089442;28;20040;-90
2022/08/21 08:18:44;;;;;;;7.07;1.13;;;20.90;99.90;;;;;;5088536;28;20130;-88
2022/08/21 08:21:11;;;;;;;7.43;1.65;;;21.00;99.90;;;;;;5107505;28;20040;-90
2022/08/21 08:23:37;;;;;;;3.80;1.02;;;21.10;99.90;;;;;;5071595;28;20047;-91
2022/08/21 08:26:03;;;;;;;8.73;1.55;;;21.20;99.90;;;;;;5090097;28;20051;-90
2022/08/21 08:28:31;;;;;;;8.10;1.63;;;21.30;99.90;;;;;;5089831;28;20360;-91
2022/08/21 08:30:58;;;;;;;8.35;1.65;;;21.40;99.90;;;;;;5106949;28;20070;-89
2022/08/21 08:33:24;;;;;;;4.60;1.38;;;21.50;99.90;;;;;;5089479;28;20047;-89
2022/08/21 08:35:51;;;;;;;5.43;1.25;;;21.50;99.90;;;;;;5107278;27;20040;-92
2022/08/21 08:38:19;;;;;;;5.55;1.58;;;21.50;99.90;;;;;;5110601;27;20084;-89
2022/08/21 08:41:03;;;;;;;5.90;1.60;;;21.60;99.90;;;;;;5075099;27;20608;-90
2022/08/21 08:43:32;;;;;;;4.20;1.27;;;21.60;99.90;;;;;;5109294;27;20089;-91
2022/08/21 08:46:01;;;;;;;9.32;1.45;;;21.70;99.90;;;;;;5092948;27;20394;-90
2022/08/21 08:48:57;;;;;;;8.43;1.95;;;21.90;99.90;;;;;;5109988;27;20389;-91
2022/08/21 08:51:40;;;;;;;8.35;1.90;;;22.10;99.90;;;;;;5110596;27;20132;-91
2022/08/21 08:54:10;;;;;;;8.15;1.98;;;22.20;99.90;;;;;;5091765;27;20096;-90
2022/08/21 08:56:36;;;;;;;11.73;2.13;;;22.30;99.90;;;;;;5109247;27;20126;-92
2022/08/21 08:59:42;;;;;;;14.68;2.70;;;22.30;99.90;;;;;;5092282;28;20130;-91
2022/08/21 09:02:12;;;;;;;8.65;2.03;;;22.40;99.90;;;;;;5109434;28;20068;-91
2022/08/21 09:04:38;;;;;;;9.57;1.90;;;22.50;99.90;;;;;;5092303;28;20035;-93
2022/08/21 09:07:24;;;;;;;6.07;2.30;;;22.80;99.90;;;;;;5109301;28;20525;-90
2022/08/21 09:10:20;;;;;;;8.30;1.92;;;22.60;99.90;;;;;;5091992;28;20231;-91
2022/08/21 09:13:05;;;;;;;9.13;2.13;;;22.60;99.90;;;;;;5093327;28;20046;-90
2022/08/21 09:16:13;;;;;;;9.65;1.95;;;22.80;99.90;;;;;;5091777;28;20050;-92
2022/08/21 09:18:45;;;;;;;5.90;1.63;;;22.80;99.90;;;;;;5091595;28;20035;-91
2022/08/21 09:21:30;;;;;;;9.07;1.97;;;22.80;99.90;;;;;;5109862;28;20078;-91
2022/08/21 09:24:30;;;;;;;6.63;1.38;;;22.90;99.90;;;;;;5091345;28;20809;-93
2022/08/21 09:27:13;;;;;;;6.85;1.65;;;22.80;99.90;;;;;;5091638;28;20089;-92
2022/08/21 09:29:50;;;;;;;5.72;1.52;;;22.70;99.90;;;;;;5111007;28;20079;-92
2022/08/21 09:32:19;;;;;;;5.93;1.45;;;22.60;99.90;;;;;;5111113;28;20566;-91
2022/08/21 09:35:12;;;;;;;6.20;2.20;;;22.50;99.90;;;;;;5110037;28;20069;-92
2022/08/21 09:37:53;;;;;;;7.72;2.00;;;22.30;99.90;;;;;;5092117;28;20074;-91
2022/08/21 09:40:31;;;;;;;6.90;1.98;;;22.30;99.90;;;;;;5091141;28;20051;-92
2022/08/21 09:43:10;;;;;;;8.77;2.05;;;22.40;99.90;;;;;;5093067;28;20051;-91
2022/08/21 09:45:36;;;;;;;3.90;1.25;;;22.60;99.90;;;;;;5108605;28;20050;-92
2022/08/21 09:48:17;;;;;;;10.93;1.95;;;22.80;99.90;;;;;;5092478;28;20039;-92
2022/08/21 09:50:43;;;;;;;10.60;2.17;;;23.00;99.90;;;;;;5110022;28;20405;-92
2022/08/21 09:53:23;;;;;;;8.32;1.60;;;23.00;99.90;;;;;;5091146;28;20039;-91
2022/08/21 09:58:49;;;;;;;6.55;1.70;;;23.00;99.90;;;;;;5113840;28;20595;-92
2022/08/21 10:01:20;;;;;;;6.30;1.50;;;23.20;99.90;;;;;;5098521;28;20109;-91
2022/08/21 10:03:47;;;;;;;8.35;1.77;;;23.20;99.90;;;;;;5101031;28;20066;-88
2022/08/21 10:06:28;;;;;;;6.32;1.48;;;23.40;99.90;;;;;;5098630;28;20043;-90
2022/08/21 10:09:15;;;;;;;9.63;1.63;;;23.60;99.90;;;;;;5098734;28;20047;-91
2022/08/21 10:11:49;;;;;;;11.05;1.67;;;23.80;99.90;;;;;;5111961;28;20049;-90
2022/08/21 10:14:38;;;;;;;7.65;1.90;;;24.00;99.90;;;;;;5093918;28;20100;-91
2022/08/21 10:17:15;;;;;;;3.85;1.20;;;24.10;99.90;;;;;;5116020;27;20095;-92
2022/08/21 10:20:01;;;;;;;5.18;1.25;;;24.30;99.90;;;;;;5097861;27;20049;-92
2022/08/21 10:22:47;;;;;;;5.18;1.55;;;24.40;99.90;;;;;;5115333;27;20045;-92
2022/08/21 10:25:20;;;;;;;6.78;1.33;;;24.60;99.90;;;;;;5116320;27;20047;-92
2022/08/21 10:28:01;;;;;;;5.80;1.40;;;25.10;99.90;;;;;;5116860;27;20047;-94
2022/08/21 10:30:55;;;;;;;4.95;1.77;;;25.70;99.90;;;;;;5099293;27;20047;-92
2022/08/21 10:33:46;;;;;;;5.80;1.27;;;25.00;99.90;;;;;;5091857;27;20051;-92
2022/08/21 10:36:20;;;;;;;6.95;1.20;;;25.10;99.90;;;;;;5092154;27;20050;-92
2022/08/21 10:39:19;;;;;;;7.25;2.25;;;24.60;99.90;;;;;;5098593;27;20054;-93
2022/08/21 10:41:51;;;;;;;4.53;1.20;;;24.40;99.90;;;;;;5115829;27;20043;-92
2022/08/21 10:44:23;;;;;;;5.27;1.33;;;24.20;99.90;;;;;;5115010;27;20055;-92
2022/08/21 10:47:04;;;;;;;5.93;1.33;;;24.00;99.90;;;;;;5099312;27;20035;-91
2022/08/21 10:49:58;;;;;;;5.90;1.58;;;23.90;99.90;;;;;;5114778;27;20112;-92
2022/08/21 10:52:54;;;;;;;3.67;0.95;;;23.90;99.90;;;;;;5114279;27;20047;-92
2022/08/21 10:55:25;;;;;;;5.57;1.42;;;23.70;99.90;;;;;;5098945;27;20126;-92
2022/08/21 10:58:18;;;;;;;5.90;1.47;;;23.60;99.90;;;;;;5114335;27;20158;-91
2022/08/21 11:00:53;;;;;;;9.02;1.77;;;23.50;99.90;;;;;;5098684;27;20053;-91
2022/08/21 11:03:32;;;;;;;9.75;2.00;;;23.40;99.90;;;;;;5099103;27;20466;-92
2022/08/21 11:06:08;;;;;;;6.65;1.33;;;23.40;99.90;;;;;;5096464;27;20160;-90
2022/08/21 11:08:49;;;;;;;6.47;1.55;;;23.30;99.90;;;;;;5098271;27;20039;-91
2022/08/21 11:11:19;;;;;;;7.82;1.92;;;23.30;99.90;;;;;;5113504;27;20046;-90
2022/08/21 11:13:50;;;;;;;7.07;1.42;;;23.40;99.90;;;;;;5096989;27;20116;-91
2022/08/21 11:16:24;;;;;;;6.95;2.47;;;23.60;99.90;;;;;;5113905;27;20086;-92
2022/08/21 11:18:58;;;;;;;7.22;1.40;;;23.70;99.90;;;;;;5096598;27;20142;-92
2022/08/21 11:21:33;;;;;;;4.95;1.33;;;23.90;99.90;;;;;;5096874;27;20043;-92
2022/08/21 11:24:07;;;;;;;5.15;1.55;;;24.10;99.90;;;;;;5096596;27;20135;-91
2022/08/21 11:26:42;;;;;;;8.05;1.23;;;24.50;99.90;;;;;;5095751;27;20035;-92
2022/08/21 11:29:27;;;;;;;6.47;1.30;;;24.70;99.90;;;;;;5113310;27;20035;-92
2022/08/21 11:32:47;;;;;;;3.50;1.00;;;24.80;99.90;;;;;;5112505;27;20108;-90
2022/08/21 11:35:38;;;;;;;4.25;1.33;;;25.00;99.90;;;;;;5096250;27;20043;-92
2022/08/21 11:38:22;;;;;;;4.60;1.35;;;25.10;99.90;;;;;;5096291;27;20035;-92
2022/08/21 11:41:18;;;;;;;5.25;1.83;;;25.30;99.90;;;;;;5095892;27;20043;-92
2022/08/21 11:43:47;;;;;;;6.55;1.33;;;25.30;98.70;;;;;;5113272;27;20100;-93
2022/08/21 11:46:34;;;;;;;4.70;1.15;;;25.60;99.60;;;;;;5113150;27;20051;-92
2022/08/21 11:49:12;;;;;;;6.82;1.20;;;25.50;98.90;;;;;;5098911;27;20130;-89
2022/08/21 11:51:53;;;;;;;6.25;1.50;;;25.50;99.50;;;;;;5119797;27;20081;-91
2022/08/21 11:54:28;;;;;;;8.20;1.35;;;25.50;99.20;;;;;;5101666;27;20402;-92
2022/08/21 11:57:01;;;;;;;5.93;1.40;;;25.80;99.20;;;;;;5100186;27;20055;-91
2022/08/21 11:59:43;;;;;;;5.95;1.30;;;25.10;99.90;;;;;;5101269;27;20046;-91
2022/08/21 12:02:19;;;;;;;4.47;1.33;;;24.90;99.90;;;;;;5099414;27;20104;-92
2022/08/21 12:04:54;;;;;;;6.18;1.88;;;24.70;99.90;;;;;;5117813;27;20111;-93
2022/08/21 12:07:32;;;;;;;7.13;1.35;;;24.60;99.90;;;;;;5100950;27;20043;-91
2022/08/21 12:09:58;;;;;;;4.70;1.55;;;24.50;99.90;;;;;;5102559;27;20035;-92
2022/08/21 12:12:37;;;;;;;4.80;1.63;;;24.50;99.90;;;;;;5101299;27;20092;-93
2022/08/21 12:15:16;;;;;;;9.38;2.53;;;24.60;99.90;;;;;;5099642;27;20045;-92
2022/08/21 12:18:05;;;;;;;4.30;1.30;;;24.80;99.90;;;;;;5116399;27;20043;-91
2022/08/21 12:20:40;;;;;;;8.80;1.77;;;25.20;99.90;;;;;;5115992;27;20061;-91
2022/08/21 12:23:09;;;;;;;8.50;1.55;;;25.80;99.90;;;;;;5098048;27;20039;-94
2022/08/21 12:25:59;;;;;;;5.28;1.45;;;26.10;98.10;;;;;;5101062;27;20047;-93
2022/08/21 12:28:27;;;;;;;4.03;1.23;;;26.00;96.30;;;;;;5105105;27;20035;-92
2022/08/21 12:30:54;;;;;;;7.75;1.30;;;25.30;96.80;;;;;;5101269;27;20039;-92
2022/08/21 12:33:28;;;;;;;4.82;1.30;;;25.50;96.50;;;;;;5096719;27;20046;-91
2022/08/21 12:36:14;;;;;;;5.47;1.15;;;25.50;97.20;;;;;;5095557;27;20084;-92
2022/08/21 12:39:10;;;;;;;4.78;1.25;;;25.50;96.10;;;;;;5096001;28;20047;-93
2022/08/21 12:41:46;;;;;;;4.53;2.55;;;25.80;95.80;;;;;;5112409;27;20047;-91
2022/08/21 12:44:21;;;;;;;4.60;1.15;;;26.00;95.80;;;;;;5103984;27;20032;-93
2022/08/21 12:47:03;;;;;;;3.65;1.10;;;26.00;95.60;;;;;;5129591;27;20031;-91
2022/08/21 12:49:34;;;;;;;;;;;26.00;94.20;;;;;;5104331;27;20126;-92
2022/08/21 12:52:09;;;;;;;4.10;1.35;;;25.70;91.60;;;;;;5095745;27;20003;-92
2022/08/21 12:54:43;;;;;;;2.88;0.90;;;25.50;94.70;;;;;;5111676;27;20054;-92
2022/08/21 12:57:24;;;;;;;3.33;1.00;;;25.40;94.60;;;;;;5075762;28;20039;-92
2022/08/21 13:00:05;;;;;;;4.32;1.13;;;25.30;93.80;;;;;;5111933;28;20126;-92
2022/08/21 13:02:39;;;;;;;2.65;0.93;;;25.10;93.40;;;;;;5092406;27;20043;-92
2022/08/21 13:05:07;;;;;;;2.70;0.80;;;25.10;92.20;;;;;;5092859;28;20519;-91
2022/08/21 13:07:35;;;;;;;3.65;1.27;;;24.90;92.90;;;;;;5109925;28;20039;-92